Time;durP1;ratioP1;P1;durP2;ratioP2;P2;SDS_P1;SDS_P2;PMS_P1;PMS_P2;Temp;Humidity;BMP_temperature;BMP_pressure;BME280_temperature;BME280_humidity;BME280_pressure;Samples;Min_cycle;Max_cycle;Signal;HPM_P1;HPM_P2
2021/09/14 00:01:22;;;;;;;;;8.00;7.50;;;;;-147.91;100.00;58652.34;5007212;28;45955;-80
2021/09/14 00:03:47;;;;;;;;;9.75;9.25;;;;;-147.91;100.00;58652.34;5004191;28;47048;-80
2021/09/14 00:06:12;;;;;;;;;7.25;6.00;;;;;-147.91;100.00;58652.34;4997692;28;45679;-80
2021/09/14 00:08:38;;;;;;;;;6.50;6.50;;;;;-147.91;100.00;58652.34;5027274;28;45419;-80
2021/09/14 00:11:03;;;;;;;;;8.25;6.50;;;;;-147.91;100.00;58652.34;5006370;28;46057;-80
2021/09/14 00:13:29;;;;;;;;;7.00;6.75;;;;;-147.91;100.00;58652.34;5004312;28;49508;-80
2021/09/14 00:15:54;;;;;;;;;7.75;5.75;;;;;-147.91;100.00;58652.34;5002449;28;45602;-80
2021/09/14 00:18:19;;;;;;;;;6.25;6.25;;;;;-147.91;100.00;58652.34;5006738;28;46216;-80
2021/09/14 00:20:45;;;;;;;;;9.75;7.25;;;;;-147.91;100.00;58652.34;5003523;28;45820;-80
2021/09/14 00:23:10;;;;;;;;;9.50;8.00;;;;;-147.91;100.00;58652.34;5009617;28;45415;-80
2021/09/14 00:25:39;;;;;;;;;8.50;8.00;;;;;-147.91;100.00;58652.34;5006296;28;45763;-80
2021/09/14 00:28:04;;;;;;;;;9.75;8.75;;;;;-147.91;100.00;58652.34;5006709;28;45837;-80
2021/09/14 00:30:30;;;;;;;;;10.50;8.00;;;;;-147.91;100.00;58652.34;5016016;28;46347;-80
2021/09/14 00:32:55;;;;;;;;;7.00;6.25;;;;;-147.91;100.00;58652.34;5006319;28;48780;-80
2021/09/14 00:35:21;;;;;;;;;9.25;9.25;;;;;-147.91;100.00;58652.34;4983908;28;45678;-80
2021/09/14 00:37:46;;;;;;;;;9.25;7.50;;;;;-147.91;100.00;58652.34;5010128;28;46365;-80
2021/09/14 00:40:12;;;;;;;;;6.00;6.00;;;;;-147.91;100.00;58652.34;5012600;28;46929;-80
2021/09/14 00:42:37;;;;;;;;;9.00;7.00;;;;;-147.91;100.00;58652.34;5011238;28;49450;-80
2021/09/14 00:45:04;;;;;;;;;10.00;7.00;;;;;-147.91;100.00;58652.34;5010001;28;45671;-80
2021/09/14 00:47:29;;;;;;;;;7.50;7.00;;;;;-147.91;100.00;58652.34;5005517;28;45899;-80
2021/09/14 00:49:55;;;;;;;;;8.00;7.75;;;;;-147.91;100.00;58652.34;5013380;28;46415;-80
2021/09/14 00:52:20;;;;;;;;;8.00;8.00;;;;;-147.91;100.00;58652.34;5006656;28;45950;-80
2021/09/14 00:54:46;;;;;;;;;8.50;8.25;;;;;-147.91;100.00;58652.34;5013275;28;45478;-80
2021/09/14 00:57:11;;;;;;;;;7.00;7.00;;;;;-147.91;100.00;58652.34;5007483;28;45653;-80
2021/09/14 00:59:36;;;;;;;;;11.50;9.00;;;;;-147.91;100.00;58652.34;5013414;28;45554;-80
2021/09/14 01:02:02;;;;;;;;;6.75;6.75;;;;;-147.91;100.00;58652.34;5008615;28;45798;-80
2021/09/14 01:04:30;;;;;;;;;9.25;9.25;;;;;-147.91;100.00;58652.34;5009594;28;45938;-80
2021/09/14 01:06:56;;;;;;;;;7.75;7.75;;;;;-147.91;100.00;58652.34;5006780;28;45534;-80
2021/09/14 01:09:23;;;;;;;;;11.75;10.00;;;;;-147.91;100.00;58652.34;5003367;28;45617;-80
2021/09/14 01:11:49;;;;;;;;;8.00;8.00;;;;;-147.91;100.00;58652.34;5014116;28;45914;-80
2021/09/14 01:14:14;;;;;;;;;10.50;9.50;;;;;-147.91;100.00;58652.34;5008975;28;45713;-80
2021/09/14 01:16:41;;;;;;;;;8.25;7.00;;;;;-147.91;100.00;58652.34;5005983;28;49406;-80
2021/09/14 01:19:08;;;;;;;;;12.50;9.00;;;;;-147.91;100.00;58652.34;5015728;28;46599;-80
2021/09/14 01:21:33;;;;;;;;;11.00;9.75;;;;;-147.91;100.00;58652.34;5005654;28;46622;-80
2021/09/14 01:24:00;;;;;;;;;11.50;10.00;;;;;-147.91;100.00;58652.34;4990751;28;46391;-80
2021/09/14 01:26:26;;;;;;;;;12.25;9.00;;;;;-147.91;100.00;58652.34;5013950;28;46783;-80
2021/09/14 01:28:52;;;;;;;;;9.00;9.00;;;;;-147.91;100.00;58652.34;5010896;28;46035;-80
2021/09/14 01:31:19;;;;;;;;;10.50;7.50;;;;;-147.91;100.00;58652.34;5011466;28;46895;-80
2021/09/14 01:33:52;;;;;;;;;9.00;9.00;;;;;-147.91;100.00;58652.34;5012643;28;45586;-80
2021/09/14 01:36:19;;;;;;;;;8.50;8.50;;;;;-147.91;100.00;58652.34;5008364;28;45483;-80
2021/09/14 01:38:44;;;;;;;;;11.50;9.25;;;;;-147.91;100.00;58652.34;5023923;28;45987;-80
2021/09/14 01:41:10;;;;;;;;;10.75;10.00;;;;;-147.91;100.00;58652.34;5008468;28;45880;-80
2021/09/14 01:43:37;;;;;;;;;8.75;8.75;;;;;-147.91;100.00;58652.34;5019813;28;46727;-80
2021/09/14 01:46:04;;;;;;;;;10.25;10.00;;;;;-147.91;100.00;58652.34;5017391;28;45613;-80
2021/09/14 01:48:29;;;;;;;;;14.00;10.00;;;;;-147.91;100.00;58652.34;5016781;28;45829;-80
2021/09/14 01:50:54;;;;;;;;;12.25;8.25;;;;;-147.91;100.00;58652.34;5005707;28;45957;-79
2021/09/14 01:53:23;;;;;;;;;8.25;7.75;;;;;-147.91;100.00;58652.34;5016693;28;45714;-79
2021/09/14 01:55:48;;;;;;;;;8.75;8.75;;;;;-147.91;100.00;58652.34;5010602;28;49181;-80
2021/09/14 01:58:13;;;;;;;;;7.75;7.75;;;;;-147.91;100.00;58652.34;5010027;28;47676;-80
2021/09/14 02:00:46;;;;;;;;;11.00;8.00;;;;;-147.91;100.00;58652.34;5015958;28;45644;-80
2021/09/14 02:56:17;;;;;;;;;11.25;9.00;;;;;-147.91;100.00;58652.34;5015327;28;45817;-79
2021/09/14 03:00:35;;;;;;;;;12.00;10.50;;;;;-147.91;100.00;58652.34;4966844;28;45952;-78
2021/09/14 03:03:00;;;;;;;;;11.00;9.00;;;;;-147.91;100.00;58652.34;4967621;28;45720;-78
2021/09/14 03:05:27;;;;;;;;;13.00;10.75;;;;;-147.91;100.00;58652.34;4978542;28;45668;-78
2021/09/14 03:07:53;;;;;;;;;10.25;9.25;;;;;-147.91;100.00;58652.34;4973632;28;45949;-78
2021/09/14 03:10:18;;;;;;;;;10.75;9.75;;;;;-147.91;100.00;58652.34;4965850;28;45445;-79
2021/09/14 03:12:44;;;;;;;;;11.75;10.50;;;;;-147.91;100.00;58652.34;4968801;28;46504;-79
2021/09/14 03:15:09;;;;;;;;;12.00;9.50;;;;;-147.91;100.00;58652.34;4963792;28;46634;-78
2021/09/14 03:17:35;;;;;;;;;13.00;13.00;;;;;-147.91;100.00;58652.34;4985251;28;45495;-78
2021/09/14 03:20:00;;;;;;;;;10.50;10.50;;;;;-147.91;100.00;58652.34;4978742;28;45500;-78
2021/09/14 03:22:25;;;;;;;;;13.50;11.75;;;;;-147.91;100.00;58652.34;4965028;28;46053;-78
2021/09/14 03:24:51;;;;;;;;;11.00;11.00;;;;;-147.91;100.00;58652.34;4966079;28;45562;-77
2021/09/14 03:27:16;;;;;;;;;13.00;11.25;;;;;-147.91;100.00;58652.34;4962721;28;46270;-78
2021/09/14 03:29:42;;;;;;;;;14.00;11.50;;;;;-147.91;100.00;58652.34;5002391;28;45530;-78
2021/09/14 03:32:07;;;;;;;;;9.00;9.00;;;;;-147.91;100.00;58652.34;5024425;28;45988;-78
2021/09/14 03:34:32;;;;;;;;;9.50;9.00;;;;;-147.91;100.00;58652.34;5000878;28;45491;-78
2021/09/14 03:36:58;;;;;;;;;10.75;9.50;;;;;-147.91;100.00;58652.34;5003219;28;46642;-78
2021/09/14 03:39:23;;;;;;;;;14.75;11.00;;;;;-147.91;100.00;58652.34;5002604;28;45634;-78
2021/09/14 03:41:48;;;;;;;;;12.00;11.00;;;;;-147.91;100.00;58652.34;5005535;28;48547;-78
2021/09/14 03:44:14;;;;;;;;;11.50;10.50;;;;;-147.91;100.00;58652.34;5004655;28;45838;-78
2021/09/14 03:46:39;;;;;;;;;9.00;9.00;;;;;-147.91;100.00;58652.34;5005343;28;45797;-78
2021/09/14 03:49:04;;;;;;;;;13.00;10.00;;;;;-147.91;100.00;58652.34;5002671;28;46033;-78
2021/09/14 03:51:30;;;;;;;;;10.00;10.00;;;;;-147.91;100.00;58652.34;5007486;28;46134;-78
2021/09/14 03:53:55;;;;;;;;;12.75;11.00;;;;;-147.91;100.00;58652.34;4999199;28;45570;-78
2021/09/14 03:56:21;;;;;;;;;12.00;11.00;;;;;-147.91;100.00;58652.34;5007208;28;46019;-78
2021/09/14 03:58:46;;;;;;;;;12.25;9.25;;;;;-147.91;100.00;58652.34;4994361;28;47254;-78
2021/09/14 04:01:11;;;;;;;;;13.25;9.75;;;;;-147.91;100.00;58652.34;5002950;28;46924;-78
2021/09/14 04:03:50;;;;;;;;;12.25;12.25;;;;;-147.91;100.00;58652.34;5005103;28;45808;-79
2021/09/14 04:08:59;;;;;;;;;11.25;11.00;;;;;-147.91;100.00;58652.34;5000431;28;45969;-78
2021/09/14 04:11:24;;;;;;;;;12.00;11.50;;;;;-147.91;100.00;58652.34;5005317;28;47419;-78
2021/09/14 04:13:51;;;;;;;;;11.00;10.25;;;;;-147.91;100.00;58652.34;5004493;28;45655;-78
2021/09/14 04:16:18;;;;;;;;;13.50;12.25;;;;;-147.91;100.00;58652.34;5004107;28;47667;-78
2021/09/14 04:18:43;;;;;;;;;10.75;10.75;;;;;-147.91;100.00;58652.34;5007955;28;45538;-79
2021/09/14 04:21:09;;;;;;;;;11.00;10.00;;;;;-147.91;100.00;58652.34;5017842;28;45784;-78
2021/09/14 04:23:34;;;;;;;;;12.25;11.25;;;;;-147.91;100.00;58652.34;5004123;28;46230;-78
2021/09/14 04:25:59;;;;;;;;;12.00;9.75;;;;;-147.91;100.00;58652.34;5008458;28;45628;-78
2021/09/14 04:28:25;;;;;;;;;12.00;10.75;;;;;-147.91;100.00;58652.34;5004763;28;45674;-78
2021/09/14 04:30:50;;;;;;;;;12.00;10.75;;;;;-147.91;100.00;58652.34;5006871;28;46223;-79
2021/09/14 04:33:16;;;;;;;;;12.50;12.25;;;;;-147.91;100.00;58652.34;4997141;28;47771;-78
2021/09/14 04:35:41;;;;;;;;;13.50;12.50;;;;;-147.91;100.00;58652.34;5003661;28;46462;-78
2021/09/14 04:38:07;;;;;;;;;14.75;12.00;;;;;-147.91;100.00;58652.34;5013037;28;45886;-79
2021/09/14 04:40:32;;;;;;;;;14.50;11.75;;;;;-147.91;100.00;58652.34;5000168;28;45534;-78
2021/09/14 04:42:58;;;;;;;;;16.75;13.75;;;;;-147.91;100.00;58652.34;5005252;28;45568;-79
2021/09/14 04:45:23;;;;;;;;;13.75;12.00;;;;;-147.91;100.00;58652.34;5006382;28;45972;-78
2021/09/14 04:47:48;;;;;;;;;14.75;13.00;;;;;-147.91;100.00;58652.34;5003306;28;45665;-78
2021/09/14 04:50:14;;;;;;;;;13.50;13.50;;;;;-147.91;100.00;58652.34;5004729;28;46364;-78
2021/09/14 04:52:39;;;;;;;;;13.00;11.25;;;;;-147.91;100.00;58652.34;5009507;28;45924;-78
2021/09/14 04:55:05;;;;;;;;;13.00;11.00;;;;;-147.91;100.00;58652.34;5022236;28;45639;-78
2021/09/14 04:57:31;;;;;;;;;15.25;13.75;;;;;-147.91;100.00;58652.34;4996806;28;45880;-79
2021/09/14 04:59:56;;;;;;;;;10.50;10.25;;;;;-147.91;100.00;58652.34;5000744;28;46869;-78
2021/09/14 05:02:22;;;;;;;;;11.50;9.00;;;;;-147.91;100.00;58652.34;5007573;28;45669;-78
2021/09/14 05:04:47;;;;;;;;;11.50;11.50;;;;;-147.91;100.00;58652.34;5005666;28;45786;-78
2021/09/14 05:07:13;;;;;;;;;11.25;11.00;;;;;-147.91;100.00;58652.34;5005524;28;45590;-78
2021/09/14 05:09:38;;;;;;;;;12.50;11.25;;;;;-147.91;100.00;58652.34;5004323;28;45938;-78
2021/09/14 05:12:04;;;;;;;;;12.75;9.75;;;;;-147.91;100.00;58652.34;5003879;28;45644;-78
2021/09/14 05:14:29;;;;;;;;;11.25;10.50;;;;;-147.91;100.00;58652.34;5006149;28;45605;-78
2021/09/14 05:16:55;;;;;;;;;12.00;12.00;;;;;-147.91;100.00;58652.34;5002218;28;45793;-78
2021/09/14 05:19:31;;;;;;;;;12.75;12.00;;;;;-147.91;100.00;58652.34;5003645;28;47700;-78
2021/09/14 05:21:59;;;;;;;;;9.25;8.75;;;;;-147.91;100.00;58652.34;5001930;28;47414;-78
2021/09/14 05:24:25;;;;;;;;;11.75;11.75;;;;;-147.91;100.00;58652.34;5006021;28;45586;-78
2021/09/14 05:26:51;;;;;;;;;12.75;11.50;;;;;-147.91;100.00;58652.34;4999653;28;45511;-78
2021/09/14 05:29:16;;;;;;;;;12.50;10.50;;;;;-147.91;100.00;58652.34;5000654;28;45918;-78
2021/09/14 05:31:42;;;;;;;;;12.25;10.50;;;;;-147.91;100.00;58652.34;5000930;28;45539;-78
2021/09/14 05:34:07;;;;;;;;;12.50;10.75;;;;;-147.91;100.00;58652.34;5012717;28;45963;-78
2021/09/14 05:36:33;;;;;;;;;14.00;11.75;;;;;-147.91;100.00;58652.34;5012591;28;48503;-78
2021/09/14 05:38:59;;;;;;;;;11.25;9.50;;;;;-147.91;100.00;58652.34;5022970;28;45613;-78
2021/09/14 05:41:24;;;;;;;;;10.25;10.25;;;;;-147.91;100.00;58652.34;5007763;28;45869;-79
2021/09/14 05:43:49;;;;;;;;;12.00;9.00;;;;;-147.91;100.00;58652.34;4992427;28;46293;-78
2021/09/14 05:46:30;;;;;;;;;;;;;;;;;;;;;
2021/09/14 05:49:18;;;;;;;;;8.00;8.00;;;;;-147.91;100.00;58652.34;4979378;28;72272;-95
2021/09/14 05:51:49;;;;;;;;;11.25;9.00;;;;;-147.91;100.00;58652.34;5015968;28;45730;-95
2021/09/14 05:54:25;;;;;;;;;11.00;10.50;;;;;-147.91;100.00;58652.34;5000820;28;45853;-93
2021/09/14 05:57:01;;;;;;;;;9.25;9.00;;;;;-147.91;100.00;58652.34;5017244;28;45589;-94
2021/09/14 05:59:51;;;;;;;;;9.25;9.25;;;;;-147.91;100.00;58652.34;5004639;28;47256;-95
2021/09/14 06:02:17;;;;;;;;;9.75;8.25;;;;;-147.91;100.00;58652.34;5026928;28;45285;-94
2021/09/14 06:04:42;;;;;;;;;11.75;10.00;;;;;-147.91;100.00;58652.34;5010352;28;45685;-93
2021/09/14 06:07:07;;;;;;;;;17.75;9.50;;;;;-147.91;100.00;58652.34;5004000;28;45819;-93
2021/09/14 06:09:51;;;;;;;;;14.00;11.00;;;;;-147.91;100.00;58652.34;5006256;28;47204;-95
2021/09/14 06:13:03;;;;;;;;;9.25;9.25;;;;;-147.91;100.00;58652.34;5024568;28;45753;-95
2021/09/14 06:16:14;;;;;;;;;10.25;10.00;;;;;-147.91;100.00;58652.34;5021729;28;45545;-94
2021/09/14 06:19:23;;;;;;;;;;;;;;;;;;;;;
2021/09/14 06:22:42;;;;;;;;;;;;;;;;;;;;;
2021/09/14 06:35:28;;;;;;;;;12.75;12.50;;;;;-147.91;100.00;58652.34;5296921;22;46178;-81
2021/09/14 06:37:53;;;;;;;;;9.75;9.25;;;;;-147.91;100.00;58652.34;5013583;28;47426;-80
2021/09/14 06:40:18;;;;;;;;;12.50;11.50;;;;;-147.91;100.00;58652.34;5020109;28;56227;-79
2021/09/14 06:42:44;;;;;;;;;10.25;9.75;;;;;-147.91;100.00;58652.34;5017335;28;45943;-79
2021/09/14 06:45:10;;;;;;;;;11.00;11.00;;;;;-147.91;100.00;58652.34;5090416;22;47318;-80
2021/09/14 06:47:36;;;;;;;;;13.25;12.00;;;;;-147.91;100.00;58652.34;5032496;28;45557;-81
2021/09/14 06:50:02;;;;;;;;;10.00;8.50;;;;;-147.91;100.00;58652.34;5037813;28;45668;-81
2021/09/14 06:52:28;;;;;;;;;14.50;11.50;;;;;-147.91;100.00;58652.34;5032217;28;45537;-82
2021/09/14 06:54:53;;;;;;;;;18.00;13.75;;;;;-147.91;100.00;58652.34;5033202;28;45909;-81
2021/09/14 06:57:19;;;;;;;;;12.75;12.50;;;;;-147.91;100.00;58652.34;5036698;28;45479;-81
2021/09/14 06:59:45;;;;;;;;;10.50;10.00;;;;;-147.91;100.00;58652.34;5042871;28;45815;-82
2021/09/14 07:02:10;;;;;;;;;11.50;11.25;;;;;-147.91;100.00;58652.34;5042192;28;45783;-81
2021/09/14 07:04:35;;;;;;;;;12.50;10.00;;;;;-147.91;100.00;58652.34;5033255;28;45626;-80
2021/09/14 07:07:01;;;;;;;;;12.75;12.75;;;;;-147.91;100.00;58652.34;5032834;28;48466;-81
2021/09/14 07:09:26;;;;;;;;;14.75;14.75;;;;;-147.91;100.00;58652.34;5022136;28;45817;-81
2021/09/14 07:11:52;;;;;;;;;14.50;13.50;;;;;-147.91;100.00;58652.34;5042494;28;45530;-81
2021/09/14 07:14:17;;;;;;;;;17.00;15.75;;;;;-147.91;100.00;58652.34;5042082;28;45601;-81
2021/09/14 07:16:42;;;;;;;;;19.00;16.25;;;;;-147.91;100.00;58652.34;5026677;28;50602;-83
2021/09/14 07:19:08;;;;;;;;;18.25;15.75;;;;;-147.91;100.00;58652.34;5031896;28;45589;-79
2021/09/14 07:21:33;;;;;;;;;20.75;18.75;;;;;-147.91;100.00;58652.34;5029843;28;45827;-80
2021/09/14 07:23:59;;;;;;;;;19.25;17.00;;;;;-147.91;100.00;58652.34;5038689;28;46261;-80
2021/09/14 07:26:24;;;;;;;;;20.25;15.25;;;;;-147.91;100.00;58652.34;5033885;28;45554;-81
2021/09/14 07:28:49;;;;;;;;;16.25;15.25;;;;;-147.91;100.00;58652.34;5031022;28;45874;-80
2021/09/14 07:31:15;;;;;;;;;14.25;13.50;;;;;-147.91;100.00;58652.34;5030274;28;46124;-80
2021/09/14 07:33:41;;;;;;;;;15.00;12.00;;;;;-147.91;100.00;58652.34;5034105;28;46420;-80
2021/09/14 07:36:08;;;;;;;;;13.75;11.00;;;;;-147.91;100.00;58652.34;5041013;28;45815;-80
2021/09/14 07:38:35;;;;;;;;;13.75;12.50;;;;;-147.91;100.00;58652.34;5049462;28;45865;-78
2021/09/14 07:41:01;;;;;;;;;12.75;10.75;;;;;-147.91;100.00;58652.34;5031296;28;45922;-79
2021/09/14 07:43:26;;;;;;;;;13.00;11.00;;;;;-147.91;100.00;58652.34;5027873;28;45608;-80
2021/09/14 07:45:52;;;;;;;;;9.25;7.00;;;;;-147.91;100.00;58652.34;5023389;28;45850;-80
2021/09/14 07:48:17;;;;;;;;;14.75;11.00;;;;;-147.91;100.00;58652.34;5022652;28;45647;-82
2021/09/14 07:50:42;;;;;;;;;14.00;12.25;;;;;-147.91;100.00;58652.34;5041634;28;45588;-83
2021/09/14 07:53:08;;;;;;;;;13.00;13.00;;;;;-147.91;100.00;58652.34;5020351;28;47374;-84
2021/09/14 07:55:34;;;;;;;;;11.00;11.00;;;;;-147.91;100.00;58652.34;5017946;28;46038;-82
2021/09/14 07:57:59;;;;;;;;;13.75;11.25;;;;;-147.91;100.00;58652.34;5029424;28;46346;-84
2021/09/14 08:00:25;;;;;;;;;11.50;10.00;;;;;-147.91;100.00;58652.34;5033621;28;45691;-83
2021/09/14 08:02:58;;;;;;;;;12.50;11.50;;;;;-147.91;100.00;58652.34;5026979;28;45901;-82
2021/09/14 08:05:25;;;;;;;;;11.00;10.00;;;;;-147.91;100.00;58652.34;5015347;28;45793;-83
2021/09/14 08:07:51;;;;;;;;;12.00;11.50;;;;;-147.91;100.00;58652.34;5035942;28;45600;-82
2021/09/14 08:10:18;;;;;;;;;11.00;10.00;;;;;-147.91;100.00;58652.34;5030121;28;45608;-82
2021/09/14 08:12:44;;;;;;;;;13.00;10.25;;;;;-147.91;100.00;58652.34;5023897;28;45794;-83
2021/09/14 08:15:10;;;;;;;;;11.00;9.00;;;;;-147.91;100.00;58652.34;5029589;28;46439;-83
2021/09/14 08:17:38;;;;;;;;;12.00;10.50;;;;;-147.91;100.00;58652.34;5072512;28;39579;-81
2021/09/14 08:20:05;;;;;;;;;10.25;9.25;;;;;-147.91;100.00;58652.34;5062997;28;9590;-83
2021/09/14 08:22:30;;;;;;;;;15.50;13.75;;;;;-147.91;100.00;58652.34;5047101;28;13547;-82
2021/09/14 08:24:56;;;;;;;;;12.50;12.00;;;;;-147.91;100.00;58652.34;5021653;28;45875;-82
2021/09/14 08:27:21;;;;;;;;;14.00;13.00;;;;;-147.91;100.00;58652.34;5033909;28;45595;-82
2021/09/14 08:29:47;;;;;;;;;16.50;14.00;;;;;-147.91;100.00;58652.34;5042822;28;45591;-83
2021/09/14 08:32:12;;;;;;;;;14.50;12.75;;;;;-147.91;100.00;58652.34;5045224;28;45865;-82
2021/09/14 08:34:38;;;;;;;;;15.75;12.75;;;;;-147.91;100.00;58652.34;5027967;28;45625;-82
2021/09/14 08:37:03;;;;;;;;;14.75;14.00;;;;;-147.91;100.00;58652.34;5033063;28;45662;-83
2021/09/14 08:44:42;;;;;;;;;19.25;16.75;;;;;-147.91;100.00;58652.34;4989388;22;46880;-82
2021/09/14 08:47:08;;;;;;;;;13.00;12.75;;;;;-147.91;100.00;58652.34;5037639;28;45831;-83
2021/09/14 08:49:33;;;;;;;;;11.00;10.25;;;;;-147.91;100.00;58652.34;5035867;28;45903;-82
2021/09/14 08:51:59;;;;;;;;;20.00;12.00;;;;;-147.91;100.00;58652.34;5034920;28;46680;-83
2021/09/14 08:54:24;;;;;;;;;16.75;13.00;;;;;-147.91;100.00;58652.34;5027015;28;45672;-83
2021/09/14 08:56:50;;;;;;;;;12.50;11.00;;;;;-147.91;100.00;58652.34;5035301;28;45802;-83
2021/09/14 08:59:29;;;;;;;;;14.25;13.50;;;;;-147.91;100.00;58652.34;5040409;28;45596;-83
2021/09/14 09:01:59;;;;;;;;;13.50;13.00;;;;;-147.91;100.00;58652.34;5035401;28;46135;-83
2021/09/14 09:04:25;;;;;;;;;12.25;12.25;;;;;-147.91;100.00;58652.34;5038218;28;48087;-83
2021/09/14 09:06:50;;;;;;;;;19.75;13.50;;;;;-147.91;100.00;58652.34;5029667;28;45871;-84
2021/09/14 09:09:18;;;;;;;;;15.25;14.25;;;;;-147.91;100.00;58652.34;5044975;28;45646;-82
2021/09/14 09:12:00;;;;;;;;;12.50;11.50;;;;;-147.91;100.00;58652.34;5037484;28;46395;-83
2021/09/14 09:14:45;;;;;;;;;13.25;12.75;;;;;-147.91;100.00;58652.34;5038242;28;46863;-83
2021/09/14 09:17:18;;;;;;;;;12.50;10.25;;;;;-147.91;100.00;58652.34;5032135;28;46077;-81
2021/09/14 09:19:58;;;;;;;;;18.50;13.75;;;;;-147.91;100.00;58652.34;5018554;28;45864;-83
2021/09/14 09:22:25;;;;;;;;;14.00;12.75;;;;;-147.91;100.00;58652.34;5014616;28;47344;-86
2021/09/14 09:24:53;;;;;;;;;11.00;11.00;;;;;-147.91;100.00;58652.34;5041674;28;45857;-87
2021/09/14 09:27:24;;;;;;;;;10.50;10.00;;;;;-147.91;100.00;58652.34;5050726;28;45657;-84
2021/09/14 09:29:57;;;;;;;;;15.50;13.75;;;;;-147.91;100.00;58652.34;5048598;28;45870;-82
2021/09/14 09:32:22;;;;;;;;;12.75;10.25;;;;;-147.91;100.00;58652.34;5046859;28;45497;-83
2021/09/14 09:34:56;;;;;;;;;14.50;11.50;;;;;-147.91;100.00;58652.34;5041296;28;45552;-83
2021/09/14 09:37:22;;;;;;;;;13.00;11.25;;;;;-147.91;100.00;58652.34;5034068;28;45608;-82
2021/09/14 09:39:47;;;;;;;;;11.75;11.75;;;;;-147.91;100.00;58652.34;5035803;28;45608;-83
2021/09/14 09:42:14;;;;;;;;;11.75;11.75;;;;;-147.91;100.00;58652.34;5039476;28;45603;-82
2021/09/14 09:44:54;;;;;;;;;16.75;12.00;;;;;-147.91;100.00;58652.34;5046636;28;45636;-83
2021/09/14 09:47:20;;;;;;;;;13.25;11.25;;;;;-147.91;100.00;58652.34;5041345;28;45652;-83
2021/09/14 09:49:49;;;;;;;;;13.50;12.00;;;;;-147.91;100.00;58652.34;5040585;28;45532;-83
2021/09/14 09:54:51;;;;;;;;;14.50;12.75;;;;;-147.91;100.00;58652.34;5241438;22;46235;-84
2021/09/14 09:57:17;;;;;;;;;14.00;12.25;;;;;-147.91;100.00;58652.34;4990555;28;45611;-83
2021/09/14 09:59:42;;;;;;;;;14.75;11.75;;;;;-147.91;100.00;58652.34;5001149;28;45580;-81
2021/09/14 10:02:16;;;;;;;;;14.25;13.25;;;;;-147.91;100.00;58652.34;4991346;28;47038;-84
2021/09/14 10:09:54;;;;;;;;;14.50;12.75;;;;;-147.91;100.00;58652.34;6095218;22;46065;-83
2021/09/14 10:12:29;;;;;;;;;17.50;13.25;;;;;-147.91;100.00;58652.34;5013054;28;47006;-83
2021/09/14 10:14:58;;;;;;;;;14.75;13.00;;;;;-147.91;100.00;58652.34;5016838;28;45534;-82
2021/09/14 10:17:23;;;;;;;;;17.75;12.25;;;;;-147.91;100.00;58652.34;5028422;28;45712;-83
2021/09/14 10:19:49;;;;;;;;;14.00;12.50;;;;;-147.91;100.00;58652.34;5021368;28;45968;-83
2021/09/14 10:22:23;;;;;;;;;20.25;12.50;;;;;-147.91;100.00;58652.34;5016917;28;45977;-84
2021/09/14 10:24:56;;;;;;;;;13.25;11.75;;;;;-147.91;100.00;58652.34;5024568;28;45523;-83
2021/09/14 10:27:21;;;;;;;;;14.25;12.25;;;;;-147.91;100.00;58652.34;5025719;28;45454;-85
2021/09/14 10:29:58;;;;;;;;;14.50;12.50;;;;;-147.91;100.00;58652.34;5006512;28;45528;-80
2021/09/14 10:32:23;;;;;;;;;17.25;14.25;;;;;-147.91;100.00;58652.34;5026890;28;46306;-83
2021/09/14 10:34:54;;;;;;;;;14.25;14.25;;;;;-147.91;100.00;58652.34;5026473;28;45640;-84
2021/09/14 10:37:19;;;;;;;;;13.75;12.50;;;;;-147.91;100.00;58652.34;5021057;28;46404;-81
2021/09/14 10:39:45;;;;;;;;;13.25;12.50;;;;;-147.91;100.00;58652.34;5025652;28;45842;-84
2021/09/14 10:42:22;;;;;;;;;12.75;9.50;;;;;-147.91;100.00;58652.34;5011751;28;46124;-83
2021/09/14 10:44:52;;;;;;;;;11.25;9.75;;;;;-147.91;100.00;58652.34;5019903;28;45525;-88
2021/09/14 10:47:22;;;;;;;;;17.00;9.75;;;;;-147.91;100.00;58652.34;5026865;28;45890;-85
2021/09/14 10:50:00;;;;;;;;;13.00;10.00;;;;;-147.91;100.00;58652.34;5011014;28;45655;-87
2021/09/14 10:52:42;;;;;;;;;12.00;12.00;;;;;-147.91;100.00;58652.34;5024319;28;45934;-84
2021/09/14 10:55:16;;;;;;;;;11.00;9.00;;;;;-147.91;100.00;58652.34;5018584;28;45760;-84
2021/09/14 10:57:47;;;;;;;;;11.50;10.25;;;;;-147.91;100.00;58652.34;5020925;28;45746;-84
2021/09/14 11:00:21;;;;;;;;;13.50;12.25;;;;;-147.91;100.00;58652.34;5020964;28;45635;-83
2021/09/14 11:03:03;;;;;;;;;11.00;11.00;;;;;-147.91;100.00;58652.34;5014945;28;45799;-81
2021/09/14 11:08:30;;;;;;;;;11.25;11.25;;;;;-147.91;100.00;58652.34;4986077;28;45549;-91
2021/09/14 11:10:59;;;;;;;;;12.25;10.25;;;;;-147.91;100.00;58652.34;4992250;28;45502;-90
2021/09/14 11:13:31;;;;;;;;;9.50;9.50;;;;;-147.91;100.00;58652.34;4990189;28;53150;-92
2021/09/14 11:16:02;;;;;;;;;11.00;10.00;;;;;-147.91;100.00;58652.34;5043416;22;45856;-84
2021/09/14 11:18:29;;;;;;;;;13.75;11.00;;;;;-147.91;100.00;58652.34;5046212;28;45830;-83
2021/09/14 11:21:03;;;;;;;;;8.25;8.25;;;;;-147.91;100.00;58652.34;5036343;28;45517;-82
2021/09/14 11:23:28;;;;;;;;;13.00;11.00;;;;;-147.91;100.00;58652.34;5041803;28;46104;-83
2021/09/14 11:25:55;;;;;;;;;9.25;9.25;;;;;-147.91;100.00;58652.34;5037574;28;45606;-83
2021/09/14 11:28:21;;;;;;;;;11.00;10.25;;;;;-147.91;100.00;58652.34;5039581;28;45687;-83
2021/09/14 11:30:56;;;;;;;;;11.00;9.50;;;;;-147.91;100.00;58652.34;5044898;28;45617;-83
2021/09/14 11:33:24;;;;;;;;;11.50;10.50;;;;;-147.91;100.00;58652.34;5048906;28;45894;-82
2021/09/14 11:35:50;;;;;;;;;13.25;11.50;;;;;-147.91;100.00;58652.34;5254581;22;45630;-91
2021/09/14 11:38:24;;;;;;;;;13.25;10.25;;;;;-147.91;100.00;58652.34;5009768;28;45471;-92
2021/09/14 11:40:56;;;;;;;;;10.25;9.00;;;;;-147.91;100.00;58652.34;5026122;28;45807;-91
2021/09/14 11:43:24;;;;;;;;;12.75;9.75;;;;;-147.91;100.00;58652.34;5023167;28;46647;-90
2021/09/14 11:46:27;;;;;;;;;;;;;;;;;;;;;
2021/09/14 11:49:00;;;;;;;;;11.00;9.00;;;;;-147.91;100.00;58652.34;5009798;28;69333;-91
2021/09/14 11:51:59;;;;;;;;;9.00;7.25;;;;;-147.91;100.00;58652.34;5015620;28;45801;-91
2021/09/14 11:54:37;;;;;;;;;8.00;7.25;;;;;-147.91;100.00;58652.34;5016257;28;47696;-90
2021/09/14 11:57:29;;;;;;;;;7.00;6.75;;;;;-147.91;100.00;58652.34;5014691;28;45565;-91
2021/09/14 12:00:18;;;;;;;;;9.50;7.25;;;;;-147.91;100.00;58652.34;5030363;28;45457;-91
2021/09/14 12:03:10;;;;;;;;;9.00;6.50;;;;;-147.91;100.00;58652.34;5009722;28;45688;-92
2021/09/14 12:05:35;;;;;;;;;10.50;6.00;;;;;-147.91;100.00;58652.34;5002047;28;47500;-91
2021/09/14 12:08:08;;;;;;;;;9.00;7.00;;;;;-147.91;100.00;58652.34;5015470;28;45434;-91
2021/09/14 12:10:43;;;;;;;;;9.00;8.50;;;;;-147.91;100.00;58652.34;5023448;28;45638;-90
2021/09/14 12:13:17;;;;;;;;;11.50;10.25;;;;;-147.91;100.00;58652.34;5016876;28;45456;-90
2021/09/14 12:16:05;;;;;;;;;10.00;8.00;;;;;-147.91;100.00;58652.34;5005091;28;47282;-90
2021/09/14 12:18:42;;;;;;;;;12.25;8.25;;;;;-147.91;100.00;58652.34;5022763;28;45553;-91
2021/09/14 12:21:08;;;;;;;;;12.25;9.00;;;;;-147.91;100.00;58652.34;5024706;28;45694;-90
2021/09/14 12:23:34;;;;;;;;;8.75;7.00;;;;;-147.91;100.00;58652.34;5016945;28;45461;-91
2021/09/14 12:26:16;;;;;;;;;6.75;6.75;;;;;-147.91;100.00;58652.34;5015210;28;47955;-92
2021/09/14 12:28:43;;;;;;;;;7.50;6.50;;;;;-147.91;100.00;58652.34;5018127;28;46334;-89
2021/09/14 12:31:09;;;;;;;;;7.25;6.00;;;;;-147.91;100.00;58652.34;5000389;28;45695;-90
2021/09/14 12:33:35;;;;;;;;;10.00;8.75;;;;;-147.91;100.00;58652.34;5014766;28;45629;-90
2021/09/14 12:36:00;;;;;;;;;9.00;7.50;;;;;-147.91;100.00;58652.34;5006961;28;47737;-90